地図

経路データ

SID SEASON NUMBER BASIN SUBBASIN NAME ISO_TIME NATURE LAT LON WMO_WIND WMO_PRES WMO_AGENCY TRACK_TYPE DIST2LAND LANDFALL IFLAG USA_AGENCY USA_ATCF_ID USA_LAT USA_LON USA_RECORD USA_STATUS USA_WIND USA_PRES USA_SSHS USA_R34_NE USA_R34_SE USA_R34_SW USA_R34_NW USA_R50_NE USA_R50_SE USA_R50_SW USA_R50_NW USA_R64_NE USA_R64_SE USA_R64_SW USA_R64_NW USA_POCI USA_ROCI USA_RMW USA_EYE TOKYO_LAT TOKYO_LON TOKYO_GRADE TOKYO_WIND TOKYO_PRES TOKYO_R50_DIR TOKYO_R50_LONG TOKYO_R50_SHORT TOKYO_R30_DIR TOKYO_R30_LONG TOKYO_R30_SHORT TOKYO_LAND CMA_LAT CMA_LON CMA_CAT CMA_WIND CMA_PRES HKO_LAT HKO_LON HKO_CAT HKO_WIND HKO_PRES NEWDELHI_LAT NEWDELHI_LON NEWDELHI_GRADE NEWDELHI_WIND NEWDELHI_PRES NEWDELHI_CI NEWDELHI_DP NEWDELHI_POCI REUNION_LAT REUNION_LON REUNION_TYPE REUNION_WIND REUNION_PRES REUNION_TNUM REUNION_CI REUNION_RMW REUNION_R34_NE REUNION_R34_SE REUNION_R34_SW REUNION_R34_NW REUNION_R50_NE REUNION_R50_SE REUNION_R50_SW REUNION_R50_NW REUNION_R64_NE REUNION_R64_SE REUNION_R64_SW REUNION_R64_NW BOM_LAT BOM_LON BOM_TYPE BOM_WIND BOM_PRES BOM_TNUM BOM_CI BOM_RMW BOM_R34_NE BOM_R34_SE BOM_R34_SW BOM_R34_NW BOM_R50_NE BOM_R50_SE BOM_R50_SW BOM_R50_NW BOM_R64_NE BOM_R64_SE BOM_R64_SW BOM_R64_NW BOM_ROCI BOM_POCI BOM_EYE BOM_POS_METHOD BOM_PRES_METHOD NADI_LAT NADI_LON NADI_CAT NADI_WIND NADI_PRES WELLINGTON_LAT WELLINGTON_LON WELLINGTON_WIND WELLINGTON_PRES DS824_LAT DS824_LON DS824_STAGE DS824_WIND DS824_PRES TD9636_LAT TD9636_LON TD9636_STAGE TD9636_WIND TD9636_PRES TD9635_LAT TD9635_LON TD9635_WIND TD9635_PRES TD9635_ROCI NEUMANN_LAT NEUMANN_LON NEUMANN_CLASS NEUMANN_WIND NEUMANN_PRES MLC_LAT MLC_LON MLC_CLASS MLC_WIND MLC_PRES USA_GUST BOM_GUST BOM_GUST_PER REUNION_GUST REUNION_GUST_PER USA_SEAHGT USA_SEARAD_NE USA_SEARAD_SE USA_SEARAD_SW USA_SEARAD_NW STORM_SPEED STORM_DIR
1888268N14134 1888 49 WP MM NOT_NAMED 1888-09-23 16:00:00 NR 14.0000 133.600 main 900 873 __________O___ -1 14.0000 133.600 7 10 305
1888268N14134 1888 49 WP MM NOT_NAMED 1888-09-23 18:00:00 NR 14.1924 133.316 main 873 838 __________P___ -1 14.1924 133.316 7 10 305
1888268N14134 1888 49 WP MM NOT_NAMED 1888-09-23 21:00:00 NR 14.4774 132.890 main 841 807 __________P___ -1 14.4774 132.890 7 10 304
1888268N14134 1888 49 WP MM NOT_NAMED 1888-09-24 00:00:00 NR 14.7536 132.465 main 811 769 __________P___ -1 14.7536 132.465 7 10 303
1888268N14134 1888 49 WP MM NOT_NAMED 1888-09-24 03:00:00 NR 15.0163 132.041 main 769 764 __________P___ -1 15.0163 132.041 7 10 302
1888268N14134 1888 49 WP MM NOT_NAMED 1888-09-24 04:00:00 NR 15.1000 131.900 main 764 739 __________O___ -1 15.1000 131.900 7 10 301
1888268N14134 1888 49 WP MM NOT_NAMED 1888-09-24 06:00:00 NR 15.2612 131.619 main 744 717 __________P___ -1 15.2612 131.619 7 9 300
1888268N14134 1888 49 WP MM NOT_NAMED 1888-09-24 09:00:00 NR 15.4905 131.198 main 717 693 __________P___ -1 15.4905 131.198 7 9 299
1888268N14134 1888 49 WP MM NOT_NAMED 1888-09-24 12:00:00 NR 15.7105 130.774 main 693 663 __________P___ -1 15.7105 130.774 7 9 298
1888268N14134 1888 49 WP MM NOT_NAMED 1888-09-24 15:00:00 NR 15.9273 130.345 main 663 661 __________P___ -1 15.9273 130.345 7 9 298
1888268N14134 1888 49 WP MM NOT_NAMED 1888-09-24 16:00:00 NR 16.0000 130.200 main 661 640 __________O___ -1 16.0000 130.200 7 9 298
1888268N14134 1888 49 WP MM NOT_NAMED 1888-09-24 18:00:00 NR 16.1497 129.913 main 640 610 __________P___ -1 16.1497 129.913 7 9 298
1888268N14134 1888 49 WP MM NOT_NAMED 1888-09-24 21:00:00 NR 16.3744 129.477 main 614 578 __________P___ -1 16.3744 129.477 7 10 298
1888268N14134 1888 49 WP MM NOT_NAMED 1888-09-25 00:00:00 NR 16.5994 129.029 main 578 555 __________P___ -1 16.5994 129.029 7 10 297
1888268N14134 1888 49 WP MM NOT_NAMED 1888-09-25 03:00:00 NR 16.8248 128.561 main 555 544 __________P___ -1 16.8248 128.561 7 10 297
1888268N14134 1888 49 WP MM NOT_NAMED 1888-09-25 04:00:00 NR 16.9000 128.400 main 544 527 __________O___ -1 16.9000 128.400 7 10 296
1888268N14134 1888 49 WP MM NOT_NAMED 1888-09-25 06:00:00 NR 17.0524 128.072 main 534 503 __________P___ -1 17.0524 128.072 7 11 295
1888268N14134 1888 49 WP MM NOT_NAMED 1888-09-25 09:00:00 NR 17.2812 127.562 main 511 481 __________P___ -1 17.2812 127.562 7 11 295
1888268N14134 1888 49 WP MM NOT_NAMED 1888-09-25 12:00:00 NR 17.5075 127.032 main 481 431 __________P___ -1 17.5075 127.032 7 11 294
1888268N14134 1888 49 WP MM NOT_NAMED 1888-09-25 15:00:00 NR 17.7282 126.485 main 431 413 __________P___ -1 17.7282 126.485 7 11 293
1888268N14134 1888 49 WP MM NOT_NAMED 1888-09-25 16:00:00 NR 17.8000 126.300 main 413 374 __________O___ -1 17.8000 126.300 7 12 293
1888268N14134 1888 49 WP MM NOT_NAMED 1888-09-25 18:00:00 NR 17.9549 125.913 main 377 317 __________P___ -1 17.9549 125.913 7 12 292
1888268N14134 1888 49 WP MM NOT_NAMED 1888-09-25 21:00:00 NR 18.1813 125.318 main 317 253 __________P___ -1 18.1813 125.318 7 12 291
1888268N14134 1888 49 WP MM NOT_NAMED 1888-09-26 00:00:00 NR 18.3864 124.731 main 253 200 __________P___ -1 18.3864 124.731 7 11 289
1888268N14134 1888 49 WP MM NOT_NAMED 1888-09-26 03:00:00 NR 18.5548 124.174 main 201 180 __________P___ -1 18.5548 124.174 7 11 287
1888268N14134 1888 49 WP MM NOT_NAMED 1888-09-26 04:00:00 NR 18.6000 124.000 main 180 151 __________O___ -1 18.6000 124.000 7 9 285
1888268N14134 1888 49 WP MM NOT_NAMED 1888-09-26 06:00:00 NR 18.6769 123.708 main 151 114 __________P___ -1 18.6769 123.708 7 8 283
1888268N14134 1888 49 WP MM NOT_NAMED 1888-09-26 09:00:00 NR 18.7554 123.309 main 114 77 __________P___ -1 18.7554 123.309 7 8 279
1888268N14134 1888 49 WP MM NOT_NAMED 1888-09-26 12:00:00 NR 18.7955 122.913 main 77 49 __________P___ -1 18.7955 122.913 7 8 273
1888268N14134 1888 49 WP MM NOT_NAMED 1888-09-26 15:00:00 NR 18.8034 122.468 main 49 44 __________P___ -1 18.8034 122.468 7 9 270
1888268N14134 1888 49 WP MM NOT_NAMED 1888-09-26 16:00:00 NR 18.8000 122.300 main 44 44 __________O___ -1 18.8000 122.300 3 11 269
1888268N14134 1888 49 WP MM NOT_NAMED 1888-09-26 18:00:00 NR 18.7927 121.894 main 49 33 __________P___ -1 18.7927 121.894 3 12 268
1888268N14134 1888 49 WP MM NOT_NAMED 1888-09-26 21:00:00 NR 18.7563 121.221 main 33 11 __________P___ -1 18.7563 121.221 3 13 266
1888268N14134 1888 49 WP MM NOT_NAMED 1888-09-27 00:00:00 NR 18.6973 120.514 main 33 33 __________P___ -1 18.6973 120.514 3 13 264
1888268N14134 1888 49 WP MM NOT_NAMED 1888-09-27 03:00:00 NR 18.6252 119.820 main 87 87 __________P___ -1 18.6252 119.820 3 13 264
1888268N14134 1888 49 WP MM NOT_NAMED 1888-09-27 04:00:00 NR 18.6000 119.600 main 107 107 __________O___ -1 18.6000 119.600 4 12 263
1888268N14134 1888 49 WP MM NOT_NAMED 1888-09-27 06:00:00 NR 18.5521 119.213 main 148 144 __________P___ -1 18.5521 119.213 4 11 262
1888268N14134 1888 49 WP MM NOT_NAMED 1888-09-27 09:00:00 NR 18.4747 118.663 main 195 205 __________P___ -1 18.4747 118.663 4 10 261
1888268N14134 1888 49 WP MM NOT_NAMED 1888-09-27 12:00:00 NR 18.3960 118.130 main 249 249 __________P___ -1 18.3960 118.130 4 10 262
1888268N14134 1888 49 WP MM NOT_NAMED 1888-09-27 15:00:00 NR 18.3224 117.587 main 296 296 __________P___ -1 18.3224 117.587 4 11 262
1888268N14134 1888 49 WP MM NOT_NAMED 1888-09-27 16:00:00 NR 18.3000 117.400 main 316 316 __________O___ -1 18.3000 117.400 4 11 263
1888268N14134 1888 49 WP MM NOT_NAMED 1888-09-27 18:00:00 NR 18.2531 116.993 main 357 355 __________P___ -1 18.2531 116.993 4 12 264
1888268N14134 1888 49 WP MM NOT_NAMED 1888-09-27 21:00:00 NR 18.1889 116.362 main 418 428 __________P___ -1 18.1889 116.362 4 12 265
1888268N14134 1888 49 WP MM NOT_NAMED 1888-09-28 00:00:00 NR 18.1375 115.726 main 479 462 __________P___ -1 18.1375 115.726 4 12 266
1888268N14134 1888 49 WP MM NOT_NAMED 1888-09-28 03:00:00 NR 18.1054 115.102 main 462 443 __________P___ -1 18.1054 115.102 4 12 267
1888268N14134 1888 49 WP MM NOT_NAMED 1888-09-28 04:00:00 NR 18.1000 114.900 main 443 404 __________O___ -1 18.1000 114.900 4 11 269
1888268N14134 1888 49 WP MM NOT_NAMED 1888-09-28 06:00:00 NR 18.0989 114.519 main 404 357 __________P___ -1 18.0989 114.519 4 11 271
1888268N14134 1888 49 WP MM NOT_NAMED 1888-09-28 09:00:00 NR 18.1166 113.966 main 357 303 __________P___ -1 18.1166 113.966 4 10 273
1888268N14134 1888 49 WP MM NOT_NAMED 1888-09-28 12:00:00 NR 18.1494 113.425 main 303 253 __________P___ -1 18.1494 113.425 4 10 274
1888268N14134 1888 49 WP MM NOT_NAMED 1888-09-28 15:00:00 NR 18.1877 112.883 main 253 237 __________P___ -1 18.1877 112.883 4 10 274
1888268N14134 1888 49 WP MM NOT_NAMED 1888-09-28 16:00:00 NR 18.2000 112.700 main 237 200 __________O___ -1 18.2000 112.700 4 11 275
1888268N14134 1888 49 WP MM NOT_NAMED 1888-09-28 18:00:00 NR 18.2320 112.325 main 200 148 __________P___ -1 18.2320 112.325 4 11 275
1888268N14134 1888 49 WP MM NOT_NAMED 1888-09-28 21:00:00 NR 18.2807 111.757 main 148 92 __________P___ -1 18.2807 111.757 4 11 274
1888268N14134 1888 49 WP MM NOT_NAMED 1888-09-29 00:00:00 NR 18.3134 111.181 main 92 49 __________P___ -1 18.3134 111.181 4 11 272
1888268N14134 1888 49 WP MM NOT_NAMED 1888-09-29 03:00:00 NR 18.3116 110.597 main 49 38 __________P___ -1 18.3116 110.597 4 11 269
1888268N14134 1888 49 WP MM NOT_NAMED 1888-09-29 04:00:00 NR 18.3000 110.400 main 38 11 __________O___ -1 18.3000 110.400 4 11 265
1888268N14134 1888 49 WP MM NOT_NAMED 1888-09-29 06:00:00 NR 18.2663 110.008 main 11 0 __________P___ -1 18.2663 110.008 4 11 263
1888268N14134 1888 49 WP MM NOT_NAMED 1888-09-29 09:00:00 NR 18.1784 109.415 main 10 10 __________P___ -1 18.1784 109.415 4 12 259
1888268N14134 1888 49 WP MM NOT_NAMED 1888-09-29 12:00:00 NR 18.0460 108.814 main 49 49 __________P___ -1 18.0460 108.814 4 12 255
1888268N14134 1888 49 WP MM NOT_NAMED 1888-09-29 15:00:00 NR 17.8689 108.205 main 85 85 __________P___ -1 17.8689 108.205 4 12 252
1888268N14134 1888 49 WP MM NOT_NAMED 1888-09-29 16:00:00 NR 17.8000 108.000 main 107 77 __________O___ -1 17.8000 108.000 4 13 249
1888268N14134 1888 49 WP MM NOT_NAMED 1888-09-29 18:00:00 NR 17.6478 107.588 main 77 24 __________P___ -1 17.6478 107.588 4 13 247
1888268N14134 1888 49 WP MM NOT_NAMED 1888-09-29 21:00:00 NR 17.3893 106.965 main 24 0 __________P___ -1 17.3893 106.965 4 13 245
1888268N14134 1888 49 WP MM NOT_NAMED 1888-09-30 00:00:00 NR 17.1039 106.337 main 0 0 __________P___ -1 17.1039 106.337 4 13 244
1888268N14134 1888 49 WP MM NOT_NAMED 1888-09-30 03:00:00 NR 16.8023 105.709 main 0 0 __________P___ -1 16.8023 105.709 4 13 243
1888268N14134 1888 49 WP MM NOT_NAMED 1888-09-30 04:00:00 NR 16.7000 105.500 main 0 __________O___ -1 16.7000 105.500 7 14 243

デジタル台風データ・検索

IBTrACS Databaseについて

本データベースは、米国NOAAが公開する1842年以降の世界の熱帯低気圧のベストトラックデータアーカイブInternational Best Track Archive for Climate Stewardship (IBTrACS)を、ウェブで閲覧しやすい形式に変換したものです。

最終更新日:2021-10-25